Kerken UL

DE-0200 · North Rhine-Westphalia, 德国

罗盘
风向 的 风向 的 风向 到 风向 270° Kerken UL 1/19
风: 4 kt, 2 beaufort

1 kt

4 kt
改变
0 1.000 2.000 3.000 4.000 5.000
OVC 200 ft
METAR EDDL 300020Z AUTO 27004KT 240V300 1900 BR OVC002 07/07 Q1022 NOSIG

METAR Kerken UL - DE-0200

Kerken UL是,德国中的小机场。 该机场有一条跑道: 1/19. 该领域的国际民航组织标志是DE-0200.

这份报告是针对2022年11月30日 01:20, 当地时间在Düsseldorf Airport进行的。

机场观察

风向为270°,速度为4 kt。 风向在240°和300°之间变化。

可见度为1,9 km。

有乌云密布在200 ft的高度。 破损或更高的上限为200 ft。

当前天气为薄雾。 温度为7 °C,阵风为4 °C。 露点为7 °C,相对湿度为100%。 海平面上的气压为1022 hPa (QNH)。

白天

今天,太阳从08:15升起,在16:29降落。 这适用于Kerken UL,世界夏令时可能有所不同。 当地时间与世界标准时间之间的时差为+1 小时。 当前,没有夏令时有效。

公司介绍

我们没有关于这个机场的公司信息。

体会

到Vliegles.nl去找飞行课程,跳伞和其他飞行体验。 浏览页面,了解Kerken UL附近所有可用的活动。 你也可以使用搜索功能来寻找你所在地附近的特定飞行课程、跳伞或其他飞行体验。

跑道

Id 标题 侧风 逆风 侧风 %
1/19 010°-190° 4 kt 98 %

逆风成分最大的方向会被突出显示,并用于横风计算。 这并不一定意味着这个方向在使用。

乌云

200 ft OVC 乌云密布

温度 & 天气

天气 薄雾
温度 7 °C
露点 7 °C
相对湿度 100%
风寒 4 °C
Kp-index 0 (0-9)

白天

日出
08:13 (6:41)
中午
12:21
日落
16:29

小工具

你想在你的网站上有一个关于Kerken UL的当前航空天气(METAR)的小部件吗?

显示HTML代码

我们和第三方通过cookies跟踪您在我们网站上的互联网行为。如果你继续,我们认为你同意我们的饼干政策